Time;durP1;ratioP1;P1;durP2;ratioP2;P2;SDS_P1;SDS_P2;PMS_P1;PMS_P2;Temp;Humidity;BMP_temperature;BMP_pressure;BME280_temperature;BME280_humidity;BME280_pressure;Samples;Min_cycle;Max_cycle;Signal;HPM_P1;HPM_P2
2022/07/19 00:00:14;;;;;;;6.85;4.32;;;23.40;98.20;;;;;;5033908;28;20069;-63
2022/07/19 00:02:41;;;;;;;6.82;4.75;;;23.30;98.60;;;;;;5033483;28;20077;-63
2022/07/19 00:05:08;;;;;;;7.60;4.70;;;23.10;98.70;;;;;;5032972;28;20103;-63
2022/07/19 00:07:34;;;;;;;6.35;4.25;;;23.00;99.10;;;;;;5015221;28;20484;-63
2022/07/19 00:10:00;;;;;;;7.68;4.57;;;22.90;99.40;;;;;;5033563;28;20135;-63
2022/07/19 00:12:26;;;;;;;5.50;3.95;;;22.90;99.50;;;;;;5033157;28;20438;-63
2022/07/19 00:14:52;;;;;;;8.10;4.32;;;22.80;99.60;;;;;;5033439;28;20029;-63
2022/07/19 00:17:17;;;;;;;8.30;4.72;;;22.80;99.60;;;;;;5032252;28;20454;-63
2022/07/19 00:19:43;;;;;;;9.13;4.65;;;22.70;99.90;;;;;;5032724;28;20052;-63
2022/07/19 00:22:09;;;;;;;7.57;4.22;;;22.70;99.70;;;;;;5032877;28;20037;-63
2022/07/19 00:24:35;;;;;;;6.72;4.60;;;22.70;99.80;;;;;;5033345;28;20048;-63
2022/07/19 00:27:00;;;;;;;7.53;4.60;;;22.70;99.90;;;;;;5029661;28;20048;-63
2022/07/19 00:29:26;;;;;;;7.00;4.45;;;22.60;99.90;;;;;;5033251;28;20072;-63
2022/07/19 00:31:51;;;;;;;7.80;4.75;;;22.60;99.90;;;;;;4996346;28;20038;-63
2022/07/19 00:34:17;;;;;;;8.48;4.50;;;22.60;99.90;;;;;;5033131;28;20034;-63
2022/07/19 00:36:43;;;;;;;6.97;4.97;;;22.60;99.90;;;;;;5031598;28;20037;-63
2022/07/19 00:39:08;;;;;;;7.07;4.82;;;22.60;99.80;;;;;;5013486;28;20034;-64
2022/07/19 00:41:41;;;;;;;7.22;4.80;;;22.60;99.80;;;;;;5032545;28;20085;-63
2022/07/19 00:44:08;;;;;;;8.50;4.68;;;22.50;99.90;;;;;;5029489;28;20053;-63
2022/07/19 00:46:34;;;;;;;9.10;4.78;;;22.50;99.90;;;;;;5028926;28;20037;-63
2022/07/19 00:49:00;;;;;;;7.38;5.05;;;22.50;99.90;;;;;;5031846;28;20044;-64
2022/07/19 00:51:26;;;;;;;7.72;5.00;;;22.50;99.90;;;;;;5031923;28;20133;-63
2022/07/19 00:53:52;;;;;;;7.82;5.38;;;22.40;99.90;;;;;;5031975;28;20564;-63
2022/07/19 00:56:19;;;;;;;6.53;5.38;;;22.30;99.90;;;;;;5013651;28;20470;-63
2022/07/19 00:58:46;;;;;;;8.40;5.43;;;22.30;99.90;;;;;;5032653;28;20080;-63
2022/07/19 01:01:12;;;;;;;8.55;5.82;;;22.30;99.90;;;;;;5032064;28;20029;-64
2022/07/19 01:03:39;;;;;;;8.25;5.45;;;22.40;99.90;;;;;;5032444;28;20049;-63
2022/07/19 01:06:07;;;;;;;7.85;5.72;;;22.30;99.90;;;;;;5029064;28;20060;-63
2022/07/19 01:08:33;;;;;;;11.63;6.07;;;22.30;99.90;;;;;;5011975;28;20124;-64
2022/07/19 01:10:59;;;;;;;8.70;5.68;;;22.30;99.90;;;;;;5026841;28;20049;-65
2022/07/19 01:13:24;;;;;;;8.77;5.63;;;22.20;99.90;;;;;;5031463;28;20029;-63
2022/07/19 01:15:50;;;;;;;7.68;5.40;;;22.20;99.90;;;;;;5025752;28;20061;-64
2022/07/19 01:18:16;;;;;;;9.68;5.70;;;22.10;99.90;;;;;;5028884;28;20048;-63
2022/07/19 01:20:41;;;;;;;10.43;5.70;;;22.10;99.90;;;;;;5008281;28;20120;-63
2022/07/19 01:23:07;;;;;;;9.95;5.85;;;21.90;99.90;;;;;;5029215;28;20473;-63
2022/07/19 01:25:35;;;;;;;8.40;5.65;;;21.90;99.90;;;;;;5027222;28;20056;-64
2022/07/19 01:28:04;;;;;;;8.68;6.03;;;21.80;99.90;;;;;;5028617;28;20030;-64
2022/07/19 01:30:29;;;;;;;8.50;5.85;;;21.70;99.90;;;;;;5030061;28;20104;-63
2022/07/19 01:32:56;;;;;;;13.60;6.43;;;21.70;99.90;;;;;;5025959;28;20120;-63
2022/07/19 01:35:22;;;;;;;7.95;5.57;;;21.60;99.90;;;;;;5025412;28;20175;-63
2022/07/19 01:37:48;;;;;;;13.18;6.28;;;21.60;99.90;;;;;;5027833;28;20066;-63
2022/07/19 01:40:15;;;;;;;9.00;6.30;;;21.60;99.90;;;;;;5026370;28;20448;-63
2022/07/19 01:42:42;;;;;;;7.82;6.00;;;21.60;99.90;;;;;;5029938;28;20079;-64
2022/07/19 01:45:09;;;;;;;10.43;6.80;;;21.60;99.90;;;;;;5013477;28;20631;-63
2022/07/19 01:47:36;;;;;;;11.50;6.57;;;21.50;99.90;;;;;;5030621;28;20041;-63
2022/07/19 01:50:03;;;;;;;9.88;5.85;;;21.50;99.90;;;;;;5025793;28;20430;-63
2022/07/19 01:52:29;;;;;;;9.90;6.25;;;21.50;99.90;;;;;;5026291;28;20033;-63
2022/07/19 01:54:54;;;;;;;9.35;6.10;;;21.50;99.90;;;;;;5030381;28;20383;-63
2022/07/19 01:57:20;;;;;;;10.52;6.40;;;21.50;99.90;;;;;;5027678;28;20041;-63
2022/07/19 01:59:46;;;;;;;9.75;6.05;;;21.40;99.90;;;;;;5026833;28;20037;-63
2022/07/19 02:02:11;;;;;;;10.52;6.28;;;21.40;99.90;;;;;;5028530;28;20558;-63
2022/07/19 02:04:37;;;;;;;9.95;6.45;;;21.40;99.90;;;;;;5026281;28;20044;-63
2022/07/19 02:07:03;;;;;;;8.90;6.35;;;21.30;99.90;;;;;;5013141;28;20057;-63
2022/07/19 02:09:29;;;;;;;9.00;6.88;;;21.30;99.90;;;;;;5012297;28;20040;-63
2022/07/19 02:11:54;;;;;;;10.13;6.70;;;21.30;99.90;;;;;;5027594;28;20041;-63
2022/07/19 02:14:20;;;;;;;10.50;6.45;;;21.30;99.90;;;;;;4990871;28;20038;-63
2022/07/19 02:16:46;;;;;;;9.57;7.07;;;21.20;99.90;;;;;;5023685;28;20037;-64
2022/07/19 02:19:11;;;;;;;11.70;6.68;;;21.20;99.90;;;;;;5012593;28;20103;-63
2022/07/19 02:21:38;;;;;;;11.93;6.90;;;21.20;99.90;;;;;;5031025;28;20044;-63
2022/07/19 02:24:05;;;;;;;11.50;7.03;;;21.20;99.90;;;;;;5013778;28;20048;-64
2022/07/19 02:26:31;;;;;;;9.77;6.65;;;21.10;99.90;;;;;;5013003;28;20041;-63
2022/07/19 02:28:57;;;;;;;8.90;6.57;;;21.20;99.90;;;;;;5030957;28;20056;-63
2022/07/19 02:31:23;;;;;;;11.18;7.63;;;21.10;99.90;;;;;;5030481;28;20346;-64
2022/07/19 02:33:49;;;;;;;9.30;6.78;;;21.10;99.90;;;;;;5030941;28;20098;-64
2022/07/19 02:36:16;;;;;;;8.82;6.75;;;21.10;99.90;;;;;;5009810;28;20518;-64
2022/07/19 02:38:43;;;;;;;10.30;7.25;;;21.10;99.90;;;;;;5028618;28;20048;-63
2022/07/19 02:41:09;;;;;;;11.40;7.70;;;21.00;99.90;;;;;;5013376;28;20179;-63
2022/07/19 02:43:34;;;;;;;8.38;6.57;;;21.00;99.90;;;;;;5031125;28;20053;-63
2022/07/19 02:46:00;;;;;;;9.38;6.63;;;21.00;99.90;;;;;;5027644;28;20043;-63
2022/07/19 02:48:26;;;;;;;10.93;6.80;;;21.00;99.90;;;;;;5011429;28;20439;-63
2022/07/19 02:50:51;;;;;;;11.13;7.72;;;21.00;99.90;;;;;;5031000;28;20103;-64
2022/07/19 02:53:17;;;;;;;8.23;6.75;;;21.00;99.90;;;;;;5013223;28;20034;-63
2022/07/19 02:55:43;;;;;;;12.25;7.25;;;20.90;99.90;;;;;;5030554;28;20137;-63
2022/07/19 02:58:09;;;;;;;11.38;6.57;;;20.90;99.90;;;;;;5030270;28;20437;-63
2022/07/19 03:00:35;;;;;;;10.80;7.20;;;20.90;99.90;;;;;;5030884;28;20459;-63
2022/07/19 03:03:47;;;;;;;10.00;7.00;;;20.90;99.90;;;;;;5031078;28;20029;-63
2022/07/19 03:05:48;;;;;;;9.65;7.13;;;20.90;99.90;;;;;;5013716;28;20057;-63
2022/07/19 03:08:13;;;;;;;10.48;6.90;;;20.80;99.90;;;;;;5013367;28;20086;-63
2022/07/19 03:10:39;;;;;;;9.90;6.60;;;20.80;99.90;;;;;;5013117;28;20037;-64
2022/07/19 03:13:05;;;;;;;11.05;6.90;;;20.80;99.90;;;;;;5034268;28;20061;-63
2022/07/19 03:15:31;;;;;;;11.48;6.40;;;20.80;99.90;;;;;;5032547;28;20044;-64
2022/07/19 03:17:57;;;;;;;9.10;6.68;;;20.80;99.90;;;;;;5033629;28;20484;-65
2022/07/19 03:20:23;;;;;;;8.43;6.07;;;20.70;99.90;;;;;;5033778;28;20460;-64
2022/07/19 03:22:48;;;;;;;9.68;6.15;;;20.70;99.90;;;;;;5034127;28;20091;-64
2022/07/19 03:25:14;;;;;;;10.05;6.90;;;20.60;99.90;;;;;;5033904;28;20045;-64
2022/07/19 03:27:40;;;;;;;12.20;6.85;;;20.50;99.90;;;;;;5014245;28;20069;-64
2022/07/19 03:30:06;;;;;;;10.23;6.97;;;20.50;99.90;;;;;;5034290;28;20068;-64
2022/07/19 03:32:32;;;;;;;11.30;7.50;;;20.50;99.90;;;;;;5033739;28;20037;-64
2022/07/19 03:34:58;;;;;;;10.30;7.00;;;20.40;99.90;;;;;;5034198;28;20037;-63
2022/07/19 03:37:24;;;;;;;9.70;7.22;;;20.40;99.90;;;;;;5032608;28;20033;-63
2022/07/19 03:39:50;;;;;;;10.73;7.45;;;20.30;99.90;;;;;;5016692;28;20045;-63
2022/07/19 03:42:15;;;;;;;11.27;7.40;;;20.30;99.90;;;;;;5033608;28;20048;-63
2022/07/19 03:44:41;;;;;;;10.82;7.18;;;20.30;99.90;;;;;;5033623;28;20053;-63
2022/07/19 03:47:07;;;;;;;12.32;8.18;;;20.30;99.90;;;;;;5031575;28;20045;-63
2022/07/19 03:49:32;;;;;;;11.82;7.75;;;20.30;99.90;;;;;;5033709;28;20037;-63
2022/07/19 03:51:58;;;;;;;14.65;7.78;;;20.20;99.90;;;;;;5033200;28;20116;-64
2022/07/19 03:54:24;;;;;;;10.48;7.93;;;20.20;99.90;;;;;;5016361;28;20041;-63
2022/07/19 03:56:49;;;;;;;9.38;7.57;;;20.20;99.90;;;;;;5010914;28;20362;-64
2022/07/19 03:59:15;;;;;;;11.13;7.78;;;20.10;99.90;;;;;;5028155;28;20124;-63
2022/07/19 04:01:41;;;;;;;11.13;7.72;;;20.10;99.90;;;;;;5030206;28;20457;-64
2022/07/19 04:04:07;;;;;;;10.50;7.10;;;20.10;99.90;;;;;;5030101;28;20041;-63
2022/07/19 04:06:33;;;;;;;8.65;7.10;;;20.10;99.90;;;;;;5029075;28;20033;-63
2022/07/19 04:08:58;;;;;;;11.40;7.38;;;20.20;99.90;;;;;;5030042;28;20041;-63
2022/07/19 04:11:24;;;;;;;9.45;6.90;;;20.20;99.90;;;;;;5028058;28;20502;-64
2022/07/19 04:13:49;;;;;;;10.60;7.22;;;20.20;99.90;;;;;;5015436;28;20033;-63
2022/07/19 04:16:15;;;;;;;9.30;7.22;;;20.30;99.90;;;;;;5032335;28;20381;-64
2022/07/19 04:18:41;;;;;;;9.55;7.05;;;20.30;99.90;;;;;;5033510;28;20044;-64
2022/07/19 04:21:07;;;;;;;9.90;6.93;;;20.30;99.90;;;;;;5033150;28;20482;-63
2022/07/19 04:23:33;;;;;;;11.13;7.15;;;20.40;99.90;;;;;;5014708;28;20417;-64
2022/07/19 04:25:58;;;;;;;9.98;6.75;;;20.30;99.90;;;;;;5012942;28;20456;-64
2022/07/19 04:28:24;;;;;;;12.95;6.90;;;20.30;99.90;;;;;;5033469;28;20080;-64
2022/07/19 04:30:50;;;;;;;10.05;7.20;;;20.30;99.90;;;;;;5032887;28;20064;-64
2022/07/19 04:33:18;;;;;;;11.55;6.80;;;20.40;99.90;;;;;;5032892;28;20146;-63
2022/07/19 04:35:44;;;;;;;8.20;6.28;;;20.40;99.90;;;;;;5028692;28;20629;-64
2022/07/19 04:38:10;;;;;;;10.23;7.22;;;20.40;99.90;;;;;;5032281;28;20037;-63
2022/07/19 04:40:37;;;;;;;10.00;7.13;;;20.50;99.90;;;;;;5025568;28;20034;-64
2022/07/19 04:43:02;;;;;;;12.18;7.57;;;20.50;99.90;;;;;;5015918;28;20127;-65
2022/07/19 04:45:28;;;;;;;11.85;7.85;;;20.60;99.90;;;;;;5015068;28;20347;-64
2022/07/19 04:47:54;;;;;;;11.48;7.50;;;20.60;99.90;;;;;;5012739;28;20497;-66
2022/07/19 04:50:20;;;;;;;13.88;8.00;;;20.60;99.90;;;;;;5015535;28;20067;-64
2022/07/19 04:52:46;;;;;;;12.35;7.63;;;20.60;99.90;;;;;;5023208;28;20046;-64
2022/07/19 04:55:12;;;;;;;11.55;7.85;;;20.60;99.90;;;;;;5025796;28;20041;-64
2022/07/19 04:57:38;;;;;;;14.35;8.65;;;20.70;99.90;;;;;;5030035;28;20116;-64
2022/07/19 05:00:09;;;;;;;12.77;7.95;;;20.90;99.90;;;;;;5031595;28;20375;-63
2022/07/19 05:02:38;;;;;;;9.38;7.00;;;21.30;99.90;;;;;;5013475;28;20060;-63
2022/07/19 05:05:05;;;;;;;12.07;7.90;;;21.90;99.90;;;;;;5030260;28;20033;-63
2022/07/19 05:07:31;;;;;;;13.00;8.02;;;22.50;99.90;;;;;;5030516;28;20040;-62
2022/07/19 05:09:56;;;;;;;10.93;7.40;;;22.90;99.70;;;;;;5032430;28;20132;-63
2022/07/19 05:12:22;;;;;;;14.20;7.60;;;23.40;99.10;;;;;;5030633;28;20318;-63
2022/07/19 05:14:48;;;;;;;10.48;7.70;;;23.70;98.50;;;;;;5026962;28;20679;-61
2022/07/19 05:17:14;;;;;;;11.23;7.57;;;24.10;98.10;;;;;;5019463;28;20034;-63
2022/07/19 05:19:40;;;;;;;11.48;7.63;;;24.40;97.70;;;;;;5013863;28;20128;-63
2022/07/19 05:22:06;;;;;;;9.68;7.00;;;24.80;97.20;;;;;;5028750;28;20283;-63
2022/07/19 05:24:31;;;;;;;11.73;7.43;;;25.30;96.90;;;;;;5028037;28;20064;-62
2022/07/19 05:26:57;;;;;;;10.68;7.40;;;25.60;96.20;;;;;;5029200;28;20045;-62
2022/07/19 05:29:23;;;;;;;10.50;6.90;;;25.60;95.90;;;;;;5031701;28;20040;-62
2022/07/19 05:31:48;;;;;;;13.73;7.43;;;25.70;95.60;;;;;;5031791;28;20037;-63
2022/07/19 05:34:14;;;;;;;9.63;6.97;;;26.00;95.40;;;;;;5031372;28;20049;-63
2022/07/19 05:36:40;;;;;;;9.38;7.40;;;26.10;95.20;;;;;;5027969;28;20033;-63
2022/07/19 05:39:08;;;;;;;13.48;7.20;;;26.40;94.80;;;;;;5031857;28;20548;-63
2022/07/19 05:41:34;;;;;;;10.45;7.47;;;26.60;94.40;;;;;;5031295;28;20037;-64
2022/07/19 05:44:00;;;;;;;9.38;7.10;;;26.50;94.30;;;;;;5031351;28;20064;-64
2022/07/19 05:46:26;;;;;;;9.80;6.88;;;26.70;94.50;;;;;;5027700;28;20219;-64
2022/07/19 05:48:52;;;;;;;7.88;6.45;;;27.20;94.00;;;;;;5011501;28;20036;-65
2022/07/19 05:51:18;;;;;;;13.43;7.03;;;27.40;93.80;;;;;;5013565;28;20041;-62
2022/07/19 05:53:43;;;;;;;10.25;7.20;;;27.80;93.60;;;;;;5031093;28;20037;-63
2022/07/19 05:56:09;;;;;;;10.43;6.45;;;28.00;93.20;;;;;;5029711;28;20525;-63
2022/07/19 05:58:35;;;;;;;9.82;6.07;;;28.10;93.10;;;;;;5013655;28;20366;-63
2022/07/19 06:01:22;;;;;;;13.52;6.97;;;28.20;92.80;;;;;;5013030;28;20042;-63
2022/07/19 06:03:53;;;;;;;10.20;6.68;;;28.40;92.70;;;;;;5031175;28;20042;-63
2022/07/19 06:06:19;;;;;;;9.30;6.63;;;28.70;92.50;;;;;;5026728;28;20045;-63
2022/07/19 06:08:46;;;;;;;9.50;7.15;;;29.00;92.00;;;;;;5030990;28;20130;-63
2022/07/19 06:11:12;;;;;;;10.88;7.13;;;28.90;91.70;;;;;;5030756;28;20037;-64
2022/07/19 06:13:38;;;;;;;12.05;7.30;;;29.00;91.60;;;;;;5031452;28;20041;-63
2022/07/19 06:16:05;;;;;;;10.18;6.85;;;28.90;91.60;;;;;;5029619;28;20044;-63
2022/07/19 06:18:34;;;;;;;12.30;7.43;;;29.20;91.50;;;;;;5031623;28;20108;-63
2022/07/19 06:21:14;;;;;;;9.88;7.10;;;29.50;91.30;;;;;;5031008;28;20072;-63
2022/07/19 06:23:41;;;;;;;8.20;6.00;;;29.60;90.90;;;;;;5031090;28;20552;-63
2022/07/19 06:26:08;;;;;;;9.85;6.45;;;29.70;91.00;;;;;;5029426;28;20134;-63
2022/07/19 06:28:34;;;;;;;8.48;6.43;;;30.00;91.00;;;;;;5031393;28;20037;-63
2022/07/19 06:30:59;;;;;;;10.63;6.53;;;30.10;90.90;;;;;;5013506;28;20041;-63
2022/07/19 06:33:25;;;;;;;8.10;6.30;;;30.30;90.60;;;;;;5028859;28;20072;-63
2022/07/19 06:35:51;;;;;;;9.15;6.00;;;30.30;90.50;;;;;;5011812;28;20418;-63
2022/07/19 06:38:17;;;;;;;9.40;5.82;;;30.50;90.40;;;;;;5030751;28;20045;-63
2022/07/19 06:40:43;;;;;;;11.27;6.30;;;30.50;90.20;;;;;;5030966;28;20049;-63
2022/07/19 06:43:09;;;;;;;11.65;6.07;;;30.80;90.10;;;;;;5031012;28;20252;-63
2022/07/19 06:45:35;;;;;;;8.88;5.65;;;31.00;90.00;;;;;;5010786;28;20582;-63
2022/07/19 06:48:01;;;;;;;7.07;5.85;;;31.30;89.30;;;;;;5031917;28;20033;-63
2022/07/19 06:50:27;;;;;;;8.63;5.97;;;31.40;89.20;;;;;;5032170;28;20048;-63
2022/07/19 06:52:52;;;;;;;9.68;5.88;;;31.70;88.80;;;;;;5035131;28;20112;-63
2022/07/19 06:55:18;;;;;;;10.05;5.68;;;31.60;88.10;;;;;;5014773;28;20285;-63
2022/07/19 06:57:44;;;;;;;8.02;5.30;;;31.70;88.00;;;;;;5034014;28;20060;-63
2022/07/19 07:00:11;;;;;;;9.93;5.40;;;31.80;87.50;;;;;;5034609;28;20041;-63
2022/07/19 07:02:37;;;;;;;11.55;5.55;;;31.80;86.70;;;;;;5029695;28;20071;-63
2022/07/19 07:05:04;;;;;;;8.93;5.68;;;31.80;86.50;;;;;;5017262;28;20379;-63
2022/07/19 07:07:29;;;;;;;7.32;4.63;;;31.60;86.80;;;;;;5032324;28;20461;-63
2022/07/19 07:09:55;;;;;;;10.55;5.75;;;31.20;88.10;;;;;;5034004;28;20109;-63
2022/07/19 07:12:21;;;;;;;7.45;5.00;;;30.80;88.60;;;;;;5033833;28;20121;-63
2022/07/19 07:14:46;;;;;;;8.23;5.00;;;30.70;89.30;;;;;;5029683;28;20069;-63
2022/07/19 07:17:12;;;;;;;8.05;4.60;;;30.60;89.30;;;;;;5034300;28;20034;-63
2022/07/19 07:19:38;;;;;;;8.18;4.50;;;30.50;89.90;;;;;;5031861;28;20396;-63
2022/07/19 07:22:04;;;;;;;8.15;4.45;;;30.40;89.90;;;;;;5034523;28;20447;-63
2022/07/19 07:24:30;;;;;;;8.75;4.60;;;30.40;90.20;;;;;;5031509;28;20418;-64
2022/07/19 07:26:55;;;;;;;8.73;4.57;;;30.50;90.30;;;;;;5031184;28;20276;-63
2022/07/19 07:29:21;;;;;;;8.40;4.25;;;30.60;90.20;;;;;;5016980;28;20105;-63
2022/07/19 07:31:47;;;;;;;8.25;3.78;;;30.70;89.90;;;;;;5031452;28;20044;-63
2022/07/19 07:34:12;;;;;;;7.13;4.13;;;30.70;89.70;;;;;;5034206;28;20117;-63
2022/07/19 07:36:39;;;;;;;8.70;4.13;;;30.80;89.90;;;;;;5013421;28;20095;-63
2022/07/19 07:39:04;;;;;;;7.55;3.60;;;30.80;89.20;;;;;;5032092;28;20041;-63
2022/07/19 07:41:30;;;;;;;7.68;3.80;;;30.70;89.70;;;;;;5032998;28;20037;-63
2022/07/19 07:43:56;;;;;;;6.25;3.63;;;30.80;90.10;;;;;;5011233;28;20053;-63
2022/07/19 07:46:21;;;;;;;4.97;3.15;;;30.80;90.20;;;;;;5033581;28;20116;-63
2022/07/19 07:48:47;;;;;;;9.57;3.75;;;30.90;90.10;;;;;;5030036;28;20450;-63
2022/07/19 07:51:13;;;;;;;8.02;4.18;;;31.10;89.80;;;;;;5032509;28;20078;-63
2022/07/19 07:53:38;;;;;;;6.18;3.50;;;31.10;90.00;;;;;;5033546;28;20025;-63
2022/07/19 07:56:04;;;;;;;8.27;3.60;;;31.10;88.80;;;;;;5029907;28;20084;-63
2022/07/19 07:58:30;;;;;;;5.15;3.60;;;31.20;89.10;;;;;;5033875;28;20037;-63
2022/07/19 08:00:56;;;;;;;5.90;3.53;;;31.20;89.30;;;;;;5030624;28;20153;-62
2022/07/19 08:03:21;;;;;;;7.55;3.47;;;31.30;89.30;;;;;;5033840;28;20080;-62
2022/07/19 08:05:48;;;;;;;6.45;3.67;;;31.40;89.20;;;;;;5033625;28;20040;-63
2022/07/19 08:08:17;;;;;;;7.05;3.58;;;31.40;89.30;;;;;;5030926;28;20033;-63
2022/07/19 08:10:44;;;;;;;7.22;3.70;;;31.40;88.60;;;;;;5032398;28;20029;-63
2022/07/19 08:13:09;;;;;;;8.05;3.92;;;31.40;88.60;;;;;;5016296;28;20033;-63
2022/07/19 08:15:39;;;;;;;6.90;3.83;;;31.40;88.60;;;;;;5030725;28;20056;-63
2022/07/19 08:18:05;;;;;;;5.65;3.72;;;31.40;88.10;;;;;;5010406;28;20052;-63
2022/07/19 08:20:31;;;;;;;6.68;3.95;;;31.50;88.40;;;;;;5031947;28;20109;-63
2022/07/19 08:22:57;;;;;;;7.28;3.80;;;31.50;88.30;;;;;;5033337;28;20175;-63
2022/07/19 08:25:23;;;;;;;9.77;3.53;;;31.60;88.30;;;;;;5028058;28;20042;-64
2022/07/19 08:27:48;;;;;;;6.85;3.40;;;31.80;88.10;;;;;;5033085;28;20032;-63
2022/07/19 08:30:14;;;;;;;6.25;3.35;;;31.80;87.90;;;;;;5030503;28;20639;-63
2022/07/19 08:32:40;;;;;;;5.30;3.30;;;32.00;87.60;;;;;;5033074;28;20049;-62
2022/07/19 08:35:07;;;;;;;6.50;3.28;;;32.10;87.80;;;;;;5032108;28;20266;-63
2022/07/19 08:37:34;;;;;;;11.95;3.33;;;32.10;87.40;;;;;;5029053;28;20045;-63
2022/07/19 08:39:59;;;;;;;7.03;3.00;;;32.30;87.90;;;;;;5032737;28;20041;-63
2022/07/19 08:42:26;;;;;;;5.53;3.00;;;32.40;87.00;;;;;;5030251;28;20079;-63
2022/07/19 08:44:54;;;;;;;7.68;2.95;;;32.40;87.00;;;;;;5029969;28;20613;-63
2022/07/19 08:47:21;;;;;;;6.93;2.90;;;32.50;86.90;;;;;;5029503;28;20139;-64
2022/07/19 08:49:48;;;;;;;5.78;2.70;;;32.60;86.80;;;;;;5029918;28;20589;-63
2022/07/19 08:52:14;;;;;;;5.32;2.83;;;32.60;86.80;;;;;;5032764;28;20033;-63
2022/07/19 08:54:40;;;;;;;5.53;2.72;;;32.70;87.20;;;;;;5012686;28;20292;-63
2022/07/19 08:59:50;;;;;;;6.18;2.78;;;32.80;87.10;;;;;;5031034;28;20137;-62
2022/07/19 09:02:16;;;;;;;5.68;3.00;;;32.80;86.60;;;;;;5029876;28;20096;-63
2022/07/19 09:04:43;;;;;;;6.35;2.65;;;32.80;86.50;;;;;;5030301;28;20029;-63
2022/07/19 09:07:08;;;;;;;6.80;3.08;;;33.00;87.20;;;;;;5029272;28;20175;-63
2022/07/19 09:09:36;;;;;;;6.95;2.78;;;33.00;86.70;;;;;;5029622;28;20674;-63
2022/07/19 09:12:05;;;;;;;6.55;2.72;;;33.10;86.00;;;;;;5029680;28;20041;-64
2022/07/19 09:14:34;;;;;;;6.00;2.70;;;33.20;86.10;;;;;;5009714;28;20104;-63
2022/07/19 09:17:09;;;;;;;6.47;2.90;;;33.20;85.90;;;;;;5032061;28;20033;-63
2022/07/19 09:19:41;;;;;;;7.28;2.50;;;33.40;86.30;;;;;;5032847;28;20033;-63
2022/07/19 09:22:09;;;;;;;5.55;2.75;;;33.50;85.30;;;;;;5029637;28;20409;-63
2022/07/19 09:24:40;;;;;;;5.80;2.67;;;33.60;84.70;;;;;;5029603;28;20083;-63
2022/07/19 09:27:14;;;;;;;3.80;2.30;;;33.70;83.60;;;;;;5029622;28;20043;-63
2022/07/19 09:29:42;;;;;;;5.03;2.50;;;33.70;83.90;;;;;;5029146;28;20096;-64
2022/07/19 09:32:17;;;;;;;5.55;2.42;;;33.70;83.40;;;;;;5029283;28;20037;-63
2022/07/19 09:35:06;;;;;;;5.50;2.47;;;33.80;83.50;;;;;;5029600;28;20116;-63
2022/07/19 09:37:34;;;;;;;5.95;2.53;;;33.90;83.90;;;;;;5027959;28;20040;-63
2022/07/19 09:40:06;;;;;;;3.75;2.22;;;33.90;83.50;;;;;;5031704;28;20029;-62
2022/07/19 09:42:43;;;;;;;9.30;2.90;;;34.00;82.80;;;;;;5029481;28;20428;-64
2022/07/19 09:45:12;;;;;;;5.60;2.60;;;34.00;82.60;;;;;;5025892;28;20056;-64
2022/07/19 09:47:42;;;;;;;4.20;2.30;;;34.10;82.10;;;;;;5028713;28;20504;-63
2022/07/19 09:50:10;;;;;;;5.25;2.60;;;34.10;80.90;;;;;;5011009;28;20033;-63
2022/07/19 09:52:37;;;;;;;6.47;2.70;;;34.20;80.70;;;;;;5030516;28;20040;-63
2022/07/19 09:55:07;;;;;;;4.50;2.15;;;34.30;79.90;;;;;;5026534;28;20123;-63
2022/07/19 09:57:35;;;;;;;5.93;2.60;;;34.40;79.30;;;;;;5030205;28;20216;-63
2022/07/19 10:00:04;;;;;;;5.95;2.30;;;34.40;79.10;;;;;;5026064;28;20049;-63
2022/07/19 10:02:35;;;;;;;6.28;2.60;;;34.40;78.10;;;;;;5028730;28;20061;-64
2022/07/19 10:05:05;;;;;;;5.28;2.75;;;34.40;79.20;;;;;;5028484;28;20048;-63
2022/07/19 10:07:32;;;;;;;6.07;2.38;;;34.50;78.90;;;;;;5030361;28;20139;-63
2022/07/19 10:10:03;;;;;;;4.93;2.50;;;34.50;78.80;;;;;;5031019;28;20060;-63
2022/07/19 10:12:29;;;;;;;4.68;2.20;;;34.60;78.80;;;;;;5026625;28;20578;-63
2022/07/19 10:14:55;;;;;;;6.05;2.58;;;34.70;78.40;;;;;;5030566;28;20434;-63
2022/07/19 10:17:58;;;;;;;5.40;2.40;;;34.70;76.80;;;;;;5028650;28;20034;-63
2022/07/19 10:20:26;;;;;;;9.65;2.70;;;34.70;77.20;;;;;;5028345;28;20401;-63
2022/07/19 10:22:51;;;;;;;4.85;2.38;;;34.80;77.10;;;;;;5030045;28;20038;-63
2022/07/19 10:25:18;;;;;;;6.13;2.75;;;34.90;77.00;;;;;;5032683;28;20048;-63
2022/07/19 10:27:51;;;;;;;5.82;2.40;;;35.00;75.30;;;;;;5014977;28;20501;-64
2022/07/19 10:30:20;;;;;;;5.47;2.20;;;35.10;75.00;;;;;;5032380;28;20051;-64
2022/07/19 10:32:47;;;;;;;4.75;2.30;;;35.10;75.10;;;;;;5032300;28;20095;-64
2022/07/19 10:35:39;;;;;;;5.40;1.98;;;35.10;75.00;;;;;;5029924;28;20439;-63
2022/07/19 10:38:04;;;;;;;3.65;2.15;;;35.30;75.30;;;;;;5026455;28;20111;-62
2022/07/19 10:40:43;;;;;;;3.90;2.15;;;35.30;74.00;;;;;;5032794;28;20029;-61
2022/07/19 10:43:11;;;;;;;3.95;2.35;;;35.40;73.10;;;;;;5030418;28;20124;-61
2022/07/19 10:45:39;;;;;;;4.93;2.30;;;35.40;73.40;;;;;;5034922;28;20355;-63
2022/07/19 10:48:13;;;;;;;4.70;2.45;;;35.50;73.70;;;;;;5032042;28;20034;-65
2022/07/19 10:50:49;;;;;;;4.22;2.20;;;35.60;71.40;;;;;;5032338;28;20025;-63
2022/07/19 10:53:39;;;;;;;4.07;2.28;;;35.70;71.80;;;;;;5031294;28;20084;-63
2022/07/19 10:56:18;;;;;;;5.78;2.70;;;35.70;71.80;;;;;;5030258;28;20029;-64
2022/07/19 10:58:48;;;;;;;7.90;2.53;;;35.60;72.00;;;;;;5031167;28;20041;-64
2022/07/19 11:01:19;;;;;;;5.40;2.42;;;35.60;71.20;;;;;;5029445;28;20120;-63
2022/07/19 11:03:50;;;;;;;5.53;2.35;;;35.70;70.70;;;;;;5032533;28;20052;-63
2022/07/19 11:06:23;;;;;;;4.13;2.40;;;35.70;70.30;;;;;;5031988;28;20195;-63
2022/07/19 11:08:56;;;;;;;4.38;2.30;;;35.80;70.40;;;;;;5030424;28;20159;-63
2022/07/19 11:11:23;;;;;;;5.65;2.20;;;35.80;69.90;;;;;;5029858;28;20033;-61
2022/07/19 11:13:55;;;;;;;3.83;2.20;;;35.80;70.20;;;;;;5030335;28;20119;-61
2022/07/19 11:16:24;;;;;;;6.65;2.58;;;35.80;69.20;;;;;;5031488;28;20540;-61
2022/07/19 11:18:49;;;;;;;6.18;2.72;;;35.80;69.90;;;;;;5029338;28;20044;-60
2022/07/19 11:21:16;;;;;;;7.55;2.70;;;35.80;69.50;;;;;;5032440;28;20049;-63
2022/07/19 11:23:42;;;;;;;3.10;2.33;;;35.80;70.00;;;;;;5029144;28;20156;-63
2022/07/19 11:26:20;;;;;;;7.78;2.40;;;35.90;70.20;;;;;;5031646;28;20059;-63
2022/07/19 11:28:49;;;;;;;9.02;2.70;;;36.00;70.00;;;;;;5027112;28;20034;-62
2022/07/19 11:31:23;;;;;;;5.75;2.13;;;36.10;69.50;;;;;;5031522;28;20068;-62
2022/07/19 11:33:56;;;;;;;6.00;2.03;;;36.20;68.00;;;;;;5031431;28;20076;-61
2022/07/19 11:36:23;;;;;;;4.70;2.20;;;36.30;67.80;;;;;;5028895;28;20037;-62
2022/07/19 11:38:51;;;;;;;4.53;2.10;;;36.40;68.30;;;;;;5031950;28;20081;-62
2022/07/19 11:41:32;;;;;;;4.00;2.10;;;36.30;67.60;;;;;;5029095;28;20049;-62
2022/07/19 11:44:08;;;;;;;7.13;2.92;;;36.50;68.60;;;;;;5025422;28;20481;-61
2022/07/19 11:46:39;;;;;;;6.25;2.03;;;36.60;68.60;;;;;;5022241;28;20091;-62
2022/07/19 11:49:08;;;;;;;4.45;2.47;;;36.50;67.80;;;;;;5022664;28;20041;-62
2022/07/19 11:51:34;;;;;;;6.85;2.33;;;36.50;67.20;;;;;;5023418;28;20033;-63
2022/07/19 11:54:01;;;;;;;3.65;2.13;;;36.50;67.60;;;;;;5023059;28;20048;-63
2022/07/19 11:56:33;;;;;;;6.72;2.40;;;36.60;68.50;;;;;;5024557;28;20048;-63
2022/07/19 11:59:02;;;;;;;4.18;1.95;;;36.70;67.30;;;;;;5024105;28;20089;-63
2022/07/19 12:01:30;;;;;;;4.88;2.10;;;36.70;66.60;;;;;;5023683;28;20034;-62
2022/07/19 12:04:03;;;;;;;5.43;2.10;;;36.70;65.10;;;;;;5020415;28;20049;-62
2022/07/19 12:06:45;;;;;;;3.40;1.73;;;36.70;64.70;;;;;;5025176;28;20366;-63
2022/07/19 12:09:15;;;;;;;6.95;2.30;;;36.70;64.40;;;;;;5020904;28;20045;-62
2022/07/19 12:11:47;;;;;;;4.82;2.20;;;36.70;64.20;;;;;;5023571;28;20065;-63
2022/07/19 12:14:17;;;;;;;4.80;2.10;;;36.70;64.00;;;;;;5006509;28;20041;-63
2022/07/19 12:16:42;;;;;;;3.10;2.15;;;36.80;64.60;;;;;;5003106;28;20351;-63
2022/07/19 12:19:14;;;;;;;5.22;2.13;;;36.90;64.80;;;;;;5004468;28;20044;-62
2022/07/19 12:21:41;;;;;;;8.32;2.22;;;37.00;63.90;;;;;;5023015;28;20037;-63
2022/07/19 12:24:24;;;;;;;3.15;2.17;;;37.00;64.00;;;;;;5023310;28;20069;-62
2022/07/19 12:26:59;;;;;;;5.80;1.90;;;37.00;63.00;;;;;;5021808;28;20046;-62
2022/07/19 12:29:33;;;;;;;3.45;2.00;;;36.90;63.10;;;;;;5019485;28;20046;-62
2022/07/19 12:32:03;;;;;;;6.63;2.20;;;36.90;64.10;;;;;;5021950;28;20108;-64
2022/07/19 12:34:29;;;;;;;8.25;1.90;;;36.90;63.20;;;;;;5021884;28;20030;-62
2022/07/19 12:36:55;;;;;;;6.60;2.20;;;37.00;62.60;;;;;;5022787;28;20033;-63
2022/07/19 12:39:27;;;;;;;8.45;2.33;;;36.90;62.40;;;;;;5001412;28;20042;-62
2022/07/19 12:42:05;;;;;;;4.50;1.90;;;37.00;63.20;;;;;;5001625;28;20050;-63
2022/07/19 12:44:33;;;;;;;4.43;2.08;;;37.10;62.30;;;;;;5019441;28;20061;-62
2022/07/19 12:46:59;;;;;;;5.38;2.10;;;37.10;62.30;;;;;;5015533;28;20095;-63